createdAt,value
2017-12-26T00:00:25.105Z,8.73
2017-12-26T00:02:53.588Z,7.80
2017-12-26T00:05:21.967Z,9.55
2017-12-26T00:07:52.250Z,8.73
2017-12-26T00:10:26.181Z,9.63
2017-12-26T00:12:54.820Z,10.45
2017-12-26T00:15:23.827Z,12.60
2017-12-26T00:17:53.408Z,14.18
2017-12-26T00:20:23.060Z,11.32
2017-12-26T00:22:51.518Z,12.68
2017-12-26T00:25:19.871Z,12.40
2017-12-26T00:27:48.224Z,13.45
2017-12-26T00:30:16.640Z,13.25
2017-12-26T00:32:45.023Z,13.65
2017-12-26T00:35:13.369Z,14.38
2017-12-26T00:37:41.766Z,15.15
2017-12-26T00:40:10.164Z,13.13
2017-12-26T00:42:38.551Z,12.88
2017-12-26T00:45:06.944Z,12.48
2017-12-26T00:47:35.303Z,12.95
2017-12-26T00:50:03.702Z,12.20
2017-12-26T00:52:32.074Z,17.00
2017-12-26T00:55:00.439Z,17.85
2017-12-26T00:57:28.838Z,13.77
2017-12-26T00:59:57.215Z,14.13
2017-12-26T01:02:25.598Z,17.50
2017-12-26T01:04:53.978Z,14.13
2017-12-26T01:07:22.332Z,13.98
2017-12-26T01:09:50.791Z,14.60
2017-12-26T01:12:19.147Z,16.83
2017-12-26T01:14:47.540Z,16.00
2017-12-26T01:17:15.956Z,13.32
2017-12-26T01:19:44.393Z,13.77
2017-12-26T01:22:12.800Z,17.65
2017-12-26T01:24:41.145Z,16.80
2017-12-26T01:27:09.526Z,17.70
2017-12-26T01:29:37.882Z,16.50
2017-12-26T01:32:06.251Z,15.23
2017-12-26T01:34:34.629Z,13.35
2017-12-26T01:37:02.999Z,14.77
2017-12-26T01:39:31.336Z,12.70
2017-12-26T01:41:59.717Z,17.00
2017-12-26T01:44:28.117Z,15.63
2017-12-26T01:46:56.505Z,14.60
2017-12-26T01:49:24.852Z,18.17
2017-12-26T01:51:53.205Z,17.50
2017-12-26T01:54:21.630Z,14.67
2017-12-26T01:56:49.992Z,15.10
2017-12-26T01:59:18.471Z,14.77
2017-12-26T02:01:46.858Z,13.23
2017-12-26T02:04:15.207Z,15.43
2017-12-26T02:06:43.756Z,16.67
2017-12-26T02:09:12.143Z,15.07
2017-12-26T02:11:40.589Z,18.10
2017-12-26T02:14:08.968Z,16.50
2017-12-26T02:16:37.304Z,17.43
2017-12-26T02:19:05.679Z,17.73
2017-12-26T02:21:34.188Z,16.27
2017-12-26T02:24:02.622Z,15.73
2017-12-26T02:26:31.016Z,14.27
2017-12-26T02:28:59.400Z,17.93
2017-12-26T02:31:27.798Z,17.97
2017-12-26T02:33:56.165Z,13.43
2017-12-26T02:36:24.641Z,15.37
2017-12-26T02:38:53.024Z,17.43
2017-12-26T02:41:21.414Z,14.50
2017-12-26T02:43:49.811Z,16.67
2017-12-26T02:46:18.144Z,14.67
2017-12-26T02:48:46.535Z,18.07
2017-12-26T02:51:15.006Z,15.60
2017-12-26T02:53:43.357Z,17.70
2017-12-26T02:56:11.908Z,19.40
2017-12-26T02:58:40.390Z,18.07
2017-12-26T03:01:08.952Z,20.07
2017-12-26T03:03:37.311Z,20.27
2017-12-26T03:06:05.748Z,17.37
2017-12-26T03:08:34.375Z,17.23
2017-12-26T03:11:02.855Z,20.03
2017-12-26T03:13:31.349Z,19.03
2017-12-26T03:15:59.779Z,16.50
2017-12-26T03:18:28.231Z,19.83
2017-12-26T03:20:56.836Z,20.03
2017-12-26T03:23:25.230Z,24.47
2017-12-26T03:25:53.617Z,21.30
2017-12-26T03:28:22.055Z,19.90
2017-12-26T03:30:50.431Z,19.80
2017-12-26T03:33:18.784Z,22.30
2017-12-26T03:35:47.144Z,20.37
2017-12-26T03:38:15.561Z,21.40
2017-12-26T03:40:43.935Z,21.40
2017-12-26T03:43:12.291Z,24.40
2017-12-26T03:45:40.779Z,20.93
2017-12-26T03:48:09.141Z,20.30
2017-12-26T03:50:37.486Z,21.40
2017-12-26T03:53:05.852Z,24.30
2017-12-26T03:55:34.204Z,20.83
2017-12-26T03:58:02.588Z,21.27
2017-12-26T04:00:38.563Z,21.27
2017-12-26T04:03:07.008Z,19.10
2017-12-26T04:05:35.344Z,18.57
2017-12-26T04:08:03.715Z,20.73
2017-12-26T04:10:32.082Z,18.20
2017-12-26T04:13:00.465Z,22.03
2017-12-26T04:15:28.877Z,18.30
2017-12-26T04:17:57.239Z,20.07
2017-12-26T04:20:25.587Z,20.93
2017-12-26T04:22:53.981Z,22.10
2017-12-26T04:25:22.332Z,17.90
2017-12-26T04:27:50.767Z,22.10
2017-12-26T04:30:19.126Z,23.53
2017-12-26T04:32:47.483Z,20.70
2017-12-26T04:35:15.907Z,23.13
2017-12-26T04:37:44.253Z,18.87
2017-12-26T04:40:12.644Z,20.50
2017-12-26T04:42:41.036Z,19.93
2017-12-26T04:45:09.404Z,19.43
2017-12-26T04:47:37.792Z,19.37
2017-12-26T04:50:06.141Z,19.83
2017-12-26T04:52:34.520Z,23.37
2017-12-26T04:55:02.888Z,19.77
2017-12-26T04:57:31.263Z,18.40
2017-12-26T04:59:59.617Z,16.00
2017-12-26T05:02:27.985Z,18.70
2017-12-26T05:04:56.373Z,17.47
2017-12-26T05:07:24.721Z,15.77
2017-12-26T05:09:53.126Z,18.20
2017-12-26T05:12:21.466Z,15.63
2017-12-26T05:14:49.820Z,18.07
2017-12-26T05:17:18.211Z,18.30
2017-12-26T05:19:46.554Z,20.93
2017-12-26T05:22:14.902Z,16.67
2017-12-26T05:24:43.276Z,16.17
2017-12-26T05:27:11.628Z,18.37
2017-12-26T05:29:40.027Z,16.17
2017-12-26T05:32:08.440Z,15.10
2017-12-26T05:34:36.814Z,18.57
2017-12-26T05:37:05.162Z,17.43
2017-12-26T05:39:33.518Z,21.70
2017-12-26T05:42:01.891Z,16.53
2017-12-26T05:44:30.286Z,20.90
2017-12-26T05:46:58.653Z,22.13
2017-12-26T05:49:27.017Z,19.80
2017-12-26T05:51:55.411Z,21.90
2017-12-26T05:54:23.779Z,17.00
2017-12-26T05:56:52.208Z,23.23
2017-12-26T05:59:20.555Z,22.57
2017-12-26T06:01:48.911Z,17.10
2017-12-26T06:04:17.291Z,20.97
2017-12-26T06:06:45.655Z,19.60
2017-12-26T06:09:14.039Z,18.13
2017-12-26T06:11:42.414Z,18.77
2017-12-26T06:14:10.806Z,16.77
2017-12-26T06:16:39.152Z,22.60
2017-12-26T06:19:07.520Z,16.30
2017-12-26T06:21:35.863Z,22.77
2017-12-26T06:24:04.243Z,18.13
2017-12-26T06:26:32.619Z,20.10
2017-12-26T06:29:00.998Z,21.73
2017-12-26T06:31:29.356Z,21.57
2017-12-26T06:33:57.712Z,22.50
2017-12-26T06:36:26.062Z,22.90
2017-12-26T06:38:54.462Z,22.57
2017-12-26T06:41:22.857Z,24.00
2017-12-26T06:43:51.240Z,20.70
2017-12-26T06:46:19.582Z,22.23
2017-12-26T06:48:47.943Z,21.93
2017-12-26T06:51:16.348Z,27.10
2017-12-26T06:53:44.707Z,23.57
2017-12-26T06:56:13.114Z,21.37
2017-12-26T06:58:41.502Z,22.10
2017-12-26T07:01:09.891Z,21.90
2017-12-26T07:03:38.231Z,23.83
2017-12-26T07:06:06.579Z,24.23
2017-12-26T07:08:34.976Z,19.63
2017-12-26T07:11:03.366Z,18.73
2017-12-26T07:13:31.702Z,23.63
2017-12-26T07:16:00.046Z,21.50
2017-12-26T07:18:28.481Z,21.20
2017-12-26T07:21:02.391Z,21.10
2017-12-26T07:23:30.758Z,18.23
2017-12-26T07:25:59.115Z,20.50
2017-12-26T07:28:27.517Z,21.33
2017-12-26T07:30:55.887Z,19.70
2017-12-26T07:33:24.267Z,17.97
2017-12-26T07:35:52.677Z,18.43
2017-12-26T07:38:21.022Z,17.87
2017-12-26T07:40:49.395Z,21.93
2017-12-26T07:43:17.765Z,23.27
2017-12-26T07:45:46.139Z,21.83
2017-12-26T07:48:14.549Z,18.90
2017-12-26T07:50:43.051Z,17.97
2017-12-26T07:53:11.624Z,19.57
2017-12-26T07:55:40.070Z,17.83
2017-12-26T07:58:08.461Z,18.33
2017-12-26T08:00:36.826Z,19.60
2017-12-26T08:03:05.197Z,20.30
2017-12-26T08:05:33.581Z,18.97
2017-12-26T08:08:01.975Z,18.50
2017-12-26T08:10:30.343Z,17.43
2017-12-26T08:12:58.695Z,14.70
2017-12-26T08:15:27.059Z,13.90
2017-12-26T08:17:55.473Z,18.43
2017-12-26T08:20:23.811Z,12.03
2017-12-26T08:22:52.158Z,15.17
2017-12-26T08:25:20.503Z,9.33
2017-12-26T08:27:48.948Z,9.90
2017-12-26T08:30:17.335Z,10.93
2017-12-26T08:32:45.679Z,7.87
2017-12-26T08:35:14.012Z,6.40
2017-12-26T08:37:42.361Z,7.10
2017-12-26T08:40:10.731Z,8.30
2017-12-26T08:42:39.112Z,5.23
2017-12-26T08:45:07.503Z,6.30
2017-12-26T08:47:35.842Z,4.70
2017-12-26T08:50:04.218Z,5.50
2017-12-26T08:52:32.561Z,4.73
2017-12-26T08:55:00.903Z,5.10
2017-12-26T08:57:29.267Z,4.30
2017-12-26T08:59:57.647Z,5.50
2017-12-26T09:02:25.996Z,3.10
2017-12-26T09:04:54.408Z,5.20
2017-12-26T09:07:22.781Z,3.50
2017-12-26T09:09:51.172Z,3.27
2017-12-26T09:12:19.633Z,3.40
2017-12-26T09:14:48.008Z,3.17
2017-12-26T09:17:16.430Z,2.80
2017-12-26T09:19:44.762Z,3.40
2017-12-26T09:22:13.158Z,3.27
2017-12-26T09:24:41.707Z,2.43
2017-12-26T09:27:10.032Z,2.90
2017-12-26T09:29:38.390Z,2.50
2017-12-26T09:32:06.723Z,2.40
2017-12-26T09:34:35.138Z,2.73
2017-12-26T09:37:03.488Z,1.50
2017-12-26T09:39:31.835Z,2.67
2017-12-26T09:42:00.182Z,1.80
2017-12-26T09:44:28.563Z,1.70
2017-12-26T09:46:56.970Z,1.40
2017-12-26T09:49:25.309Z,1.53
2017-12-26T09:51:53.692Z,2.40
2017-12-26T09:54:22.025Z,2.20
2017-12-26T09:56:50.364Z,1.17
2017-12-26T09:59:18.727Z,0.80
2017-12-26T10:01:47.104Z,1.07
2017-12-26T10:04:15.470Z,1.20
2017-12-26T10:06:43.818Z,2.03
2017-12-26T10:09:12.148Z,1.43
2017-12-26T10:11:40.565Z,0.97
2017-12-26T10:14:08.968Z,1.73
2017-12-26T10:16:37.318Z,0.90
2017-12-26T10:19:05.701Z,2.67
2017-12-26T10:21:34.051Z,1.37
2017-12-26T10:24:02.426Z,1.20
2017-12-26T10:26:30.772Z,1.40
2017-12-26T10:28:59.184Z,0.90
2017-12-26T10:31:27.532Z,1.93
2017-12-26T10:33:55.944Z,1.60
2017-12-26T10:36:24.321Z,1.80
2017-12-26T10:38:52.684Z,1.20
2017-12-26T10:41:21.037Z,1.00
2017-12-26T10:43:49.398Z,0.93
2017-12-26T10:46:17.754Z,0.90
2017-12-26T10:48:46.149Z,2.10
2017-12-26T10:51:14.501Z,1.57
2017-12-26T10:53:42.872Z,0.70
2017-12-26T10:56:11.260Z,1.23
2017-12-26T10:58:39.677Z,0.83
2017-12-26T11:01:08.094Z,1.13
2017-12-26T11:03:36.493Z,1.73
2017-12-26T11:06:04.866Z,0.80
2017-12-26T11:08:33.286Z,0.80
2017-12-26T11:11:01.667Z,0.60
2017-12-26T11:13:30.053Z,0.63
2017-12-26T11:15:58.414Z,0.93
2017-12-26T11:18:26.805Z,1.67
2017-12-26T11:20:55.189Z,0.73
2017-12-26T11:23:23.605Z,1.17
2017-12-26T11:25:52.065Z,1.03
2017-12-26T11:28:20.405Z,2.30
2017-12-26T11:30:49.397Z,1.10
2017-12-26T11:33:17.760Z,0.70
2017-12-26T11:35:46.148Z,0.80
2017-12-26T11:38:14.528Z,0.70
2017-12-26T11:40:42.888Z,1.63
2017-12-26T11:43:11.260Z,0.70
2017-12-26T11:45:39.726Z,0.80
2017-12-26T11:48:08.254Z,0.60
2017-12-26T11:50:36.691Z,1.13
2017-12-26T11:53:05.060Z,0.80
2017-12-26T11:55:33.441Z,1.30
2017-12-26T11:58:01.865Z,1.23
2017-12-26T12:00:30.278Z,1.00
2017-12-26T12:02:58.636Z,0.80
2017-12-26T12:05:28.563Z,2.20
2017-12-26T12:07:59.006Z,0.67
2017-12-26T12:10:31.240Z,1.93
2017-12-26T12:12:59.713Z,0.80
2017-12-26T12:15:28.101Z,1.47
2017-12-26T12:17:56.459Z,1.73
2017-12-26T12:20:24.808Z,3.93
2017-12-26T12:22:53.166Z,4.97
2017-12-26T12:25:21.568Z,2.50
2017-12-26T12:27:49.967Z,0.97
2017-12-26T12:30:18.304Z,0.97
2017-12-26T12:32:46.723Z,3.43
2017-12-26T12:35:15.088Z,1.17
2017-12-26T12:37:43.445Z,1.67
2017-12-26T12:40:11.809Z,3.23
2017-12-26T12:42:40.147Z,1.20
2017-12-26T12:45:08.566Z,1.10
2017-12-26T12:47:36.906Z,2.80
2017-12-26T12:50:05.263Z,4.07
2017-12-26T12:52:33.596Z,3.53
2017-12-26T12:55:01.950Z,2.80
2017-12-26T12:57:30.343Z,5.57
2017-12-26T12:59:58.720Z,4.33
2017-12-26T13:02:27.115Z,1.37
2017-12-26T13:04:55.515Z,1.57
2017-12-26T13:07:23.897Z,1.60
2017-12-26T13:09:52.236Z,2.20
2017-12-26T13:12:20.663Z,2.50
2017-12-26T13:14:49.077Z,5.07
2017-12-26T13:17:17.424Z,7.10
2017-12-26T13:19:45.768Z,3.13
2017-12-26T13:22:14.144Z,3.00
2017-12-26T13:24:42.484Z,3.47
2017-12-26T13:27:10.865Z,3.90
2017-12-26T13:29:39.259Z,2.40
2017-12-26T13:32:07.617Z,3.77
2017-12-26T13:34:35.962Z,3.50
2017-12-26T13:37:04.326Z,2.50
2017-12-26T13:39:32.711Z,3.63
2017-12-26T13:42:01.053Z,4.23
2017-12-26T13:44:29.390Z,2.60
2017-12-26T13:46:57.815Z,2.72
2017-12-26T13:49:26.149Z,2.57
2017-12-26T13:51:54.554Z,6.00
2017-12-26T13:54:22.887Z,2.20
2017-12-26T13:56:51.308Z,4.20
2017-12-26T13:59:19.641Z,7.77
2017-12-26T14:01:48.031Z,8.17
2017-12-26T14:04:16.401Z,1.90
2017-12-26T14:06:44.817Z,5.03
2017-12-26T14:09:13.196Z,2.37
2017-12-26T14:11:41.810Z,3.90
2017-12-26T14:14:10.159Z,3.70
2017-12-26T14:16:38.555Z,4.23
2017-12-26T14:19:06.893Z,5.43
2017-12-26T14:21:35.259Z,3.00
2017-12-26T14:24:03.624Z,3.00
2017-12-26T14:26:31.965Z,3.30
2017-12-26T14:29:00.354Z,5.70
2017-12-26T14:31:28.719Z,2.33
2017-12-26T14:33:57.067Z,2.80
2017-12-26T14:36:25.424Z,4.43
2017-12-26T14:41:36.821Z,3.00
2017-12-26T14:44:05.201Z,3.17
2017-12-26T14:46:33.560Z,6.40
2017-12-26T14:49:01.909Z,3.87
2017-12-26T14:51:30.264Z,1.70
2017-12-26T14:53:58.640Z,4.07
2017-12-26T14:56:26.992Z,1.90
2017-12-26T14:58:55.347Z,1.90
2017-12-26T15:01:23.706Z,1.62
2017-12-26T15:03:52.042Z,1.93
2017-12-26T15:06:20.407Z,3.87
2017-12-26T15:08:48.743Z,2.37
2017-12-26T15:11:17.117Z,3.17
2017-12-26T15:13:45.513Z,4.07
2017-12-26T15:16:13.897Z,3.20
2017-12-26T15:18:42.248Z,6.60
2017-12-26T15:21:10.585Z,6.53
2017-12-26T15:23:38.925Z,2.27
2017-12-26T15:26:07.321Z,3.00
2017-12-26T15:28:35.651Z,5.67
2017-12-26T15:31:04.047Z,1.75
2017-12-26T15:33:32.413Z,6.47
2017-12-26T15:36:00.796Z,2.40
2017-12-26T15:38:29.178Z,6.03
2017-12-26T15:40:57.577Z,2.10
2017-12-26T15:43:25.907Z,2.30
2017-12-26T15:45:54.321Z,1.33
2017-12-26T15:48:22.652Z,5.83
2017-12-26T15:50:50.990Z,5.43
2017-12-26T15:53:19.392Z,2.70
2017-12-26T15:55:47.766Z,2.17
2017-12-26T15:58:16.114Z,4.47
2017-12-26T16:00:44.520Z,4.53
2017-12-26T16:03:12.930Z,4.95
2017-12-26T16:05:41.382Z,3.87
2017-12-26T16:08:09.819Z,4.95
2017-12-26T16:10:38.210Z,5.97
2017-12-26T16:13:06.666Z,3.17
2017-12-26T16:15:35.035Z,7.68
2017-12-26T16:18:03.466Z,2.70
2017-12-26T16:20:31.888Z,2.58
2017-12-26T16:23:00.236Z,1.80
2017-12-26T16:25:28.724Z,1.95
2017-12-26T16:27:57.136Z,2.90
2017-12-26T16:30:25.731Z,3.53
2017-12-26T16:32:54.103Z,5.97
2017-12-26T16:35:22.580Z,2.08
2017-12-26T16:37:50.946Z,2.15
2017-12-26T16:40:19.311Z,7.15
2017-12-26T16:42:47.745Z,7.18
2017-12-26T16:45:16.086Z,4.55
2017-12-26T16:47:44.487Z,3.40
2017-12-26T16:50:12.866Z,5.18
2017-12-26T16:52:41.231Z,1.70
2017-12-26T16:55:09.663Z,5.30
2017-12-26T16:57:38.043Z,5.10
2017-12-26T17:00:06.461Z,2.85
2017-12-26T17:02:34.856Z,2.22
2017-12-26T17:05:03.427Z,2.80
2017-12-26T17:07:31.915Z,2.72
2017-12-26T17:10:00.445Z,2.90
2017-12-26T17:12:28.890Z,2.95
2017-12-26T17:14:57.286Z,2.55
2017-12-26T17:17:25.656Z,6.67
2017-12-26T17:19:54.061Z,2.33
2017-12-26T17:22:22.446Z,2.75
2017-12-26T17:24:50.920Z,2.65
2017-12-26T17:27:19.266Z,2.60
2017-12-26T17:29:47.695Z,2.20
2017-12-26T17:32:16.079Z,7.60
2017-12-26T17:34:44.500Z,4.55
2017-12-26T17:37:12.986Z,2.12
2017-12-26T17:39:41.345Z,2.62
2017-12-26T17:42:09.753Z,2.35
2017-12-26T17:44:38.103Z,2.20
2017-12-26T17:47:06.497Z,2.45
2017-12-26T17:49:34.846Z,5.20
2017-12-26T17:52:03.191Z,2.60
2017-12-26T17:54:31.557Z,2.97
2017-12-26T17:56:59.942Z,3.95
2017-12-26T17:59:28.356Z,3.05
2017-12-26T18:01:56.712Z,3.55
2017-12-26T18:04:25.078Z,1.60
2017-12-26T18:06:53.484Z,3.00
2017-12-26T18:09:21.852Z,1.85
2017-12-26T18:11:50.249Z,3.72
2017-12-26T18:14:18.609Z,6.23
2017-12-26T18:16:47.036Z,3.58
2017-12-26T18:19:15.384Z,5.40
2017-12-26T18:21:43.769Z,9.80
2017-12-26T18:24:12.143Z,2.85
2017-12-26T18:26:40.521Z,2.10
2017-12-26T18:29:08.937Z,1.85
2017-12-26T18:31:37.374Z,5.73
2017-12-26T18:34:05.747Z,3.67
2017-12-26T18:36:34.093Z,1.83
2017-12-26T18:39:02.503Z,5.03
2017-12-26T18:41:30.877Z,6.32
2017-12-26T18:43:59.258Z,10.90
2017-12-26T18:46:27.631Z,3.42
2017-12-26T18:48:55.969Z,6.87
2017-12-26T18:51:24.365Z,5.30
2017-12-26T18:53:52.803Z,2.92
2017-12-26T18:56:21.381Z,5.50
2017-12-26T18:58:49.814Z,5.80
2017-12-26T19:01:18.205Z,1.87
2017-12-26T19:03:46.684Z,5.62
2017-12-26T19:06:15.025Z,3.90
2017-12-26T19:08:43.371Z,4.82
2017-12-26T19:11:11.743Z,5.23
2017-12-26T19:13:40.315Z,2.25
2017-12-26T19:16:08.747Z,2.67
2017-12-26T19:18:37.163Z,5.10
2017-12-26T19:21:05.606Z,5.40
2017-12-26T19:23:34.024Z,10.60
2017-12-26T19:26:02.429Z,4.15
2017-12-26T19:28:30.852Z,2.97
2017-12-26T19:30:59.306Z,2.53
2017-12-26T19:33:27.698Z,3.33
2017-12-26T19:35:56.071Z,2.40
2017-12-26T19:38:24.429Z,4.75
2017-12-26T19:40:52.850Z,4.72
2017-12-26T19:43:21.325Z,5.60
2017-12-26T19:45:49.685Z,3.80
2017-12-26T19:48:18.054Z,1.57
2017-12-26T19:50:46.473Z,1.80
2017-12-26T19:53:14.862Z,4.97
2017-12-26T19:55:43.316Z,2.03
2017-12-26T19:58:11.648Z,3.23
2017-12-26T20:00:40.050Z,3.50
2017-12-26T20:03:08.428Z,2.80
2017-12-26T20:05:36.808Z,4.10
2017-12-26T20:08:05.175Z,4.60
2017-12-26T20:10:33.523Z,2.35
2017-12-26T20:13:01.886Z,1.53
2017-12-26T20:15:30.245Z,3.13
2017-12-26T20:17:58.681Z,3.03
2017-12-26T20:20:27.035Z,9.73
2017-12-26T20:22:55.373Z,7.37
2017-12-26T20:25:23.750Z,4.53
2017-12-26T20:27:52.189Z,6.70
2017-12-26T20:30:20.527Z,7.23
2017-12-26T20:32:48.940Z,3.00
2017-12-26T20:35:17.344Z,2.67
2017-12-26T20:37:45.706Z,5.80
2017-12-26T20:40:14.116Z,4.83
2017-12-26T20:42:42.458Z,4.50
2017-12-26T20:45:10.808Z,3.80
2017-12-26T20:47:39.205Z,3.90
2017-12-26T20:50:07.644Z,2.33
2017-12-26T20:52:36.218Z,3.47
2017-12-26T20:55:04.707Z,4.15
2017-12-26T20:57:33.043Z,3.23
2017-12-26T21:00:01.443Z,5.37
2017-12-26T21:02:29.823Z,3.72
2017-12-26T21:04:58.259Z,5.70
2017-12-26T21:07:26.658Z,3.13
2017-12-26T21:09:54.986Z,6.57
2017-12-26T21:12:23.466Z,7.72
2017-12-26T21:14:52.004Z,4.20
2017-12-26T21:17:20.452Z,1.87
2017-12-26T21:19:48.868Z,8.50
2017-12-26T21:22:17.531Z,5.10
2017-12-26T21:24:45.854Z,9.37
2017-12-26T21:27:14.235Z,6.97
2017-12-26T21:29:42.623Z,8.97
2017-12-26T21:32:10.994Z,10.73
2017-12-26T21:34:39.396Z,7.35
2017-12-26T21:37:07.778Z,5.82
2017-12-26T21:39:36.147Z,12.40
2017-12-26T21:42:04.577Z,9.20
2017-12-26T21:44:32.946Z,13.65
2017-12-26T21:47:01.338Z,5.80
2017-12-26T21:49:29.746Z,8.07
2017-12-26T21:51:58.096Z,5.32
2017-12-26T21:54:26.510Z,6.32
2017-12-26T21:56:54.913Z,4.60
2017-12-26T21:59:23.306Z,7.20
2017-12-26T22:01:51.674Z,2.17
2017-12-26T22:04:20.068Z,9.68
2017-12-26T22:06:48.436Z,6.10
2017-12-26T22:09:16.787Z,8.80
2017-12-26T22:11:45.270Z,8.57
2017-12-26T22:14:13.608Z,4.65
2017-12-26T22:16:41.991Z,15.27
2017-12-26T22:19:10.357Z,4.82
2017-12-26T22:21:38.744Z,7.05
2017-12-26T22:24:07.102Z,3.10
2017-12-26T22:26:35.480Z,8.30
2017-12-26T22:29:03.843Z,2.00
2017-12-26T22:31:32.268Z,7.65
2017-12-26T22:34:00.666Z,5.80
2017-12-26T22:36:29.026Z,10.47
2017-12-26T22:38:57.445Z,10.48
2017-12-26T22:41:25.839Z,13.23
2017-12-26T22:43:54.174Z,13.30
2017-12-26T22:46:22.586Z,4.13
2017-12-26T22:48:50.942Z,7.40
2017-12-26T22:51:19.332Z,5.25
2017-12-26T22:53:47.749Z,1.50
2017-12-26T22:56:16.148Z,4.30
2017-12-26T22:58:44.564Z,5.50
2017-12-26T23:01:13.065Z,4.20
2017-12-26T23:03:41.454Z,6.00
2017-12-26T23:06:09.836Z,5.07
2017-12-26T23:08:38.188Z,3.37
2017-12-26T23:11:06.554Z,3.37
2017-12-26T23:13:34.933Z,4.35
2017-12-26T23:19:03.332Z,8.45
2017-12-26T23:21:31.662Z,8.00
2017-12-26T23:27:06.604Z,9.20
2017-12-26T23:29:40.688Z,3.23
2017-12-26T23:32:14.702Z,3.27
2017-12-26T23:34:48.863Z,3.50
2017-12-26T23:37:22.850Z,10.35
2017-12-26T23:39:56.812Z,2.00
2017-12-26T23:45:32.886Z,2.43
2017-12-26T23:48:07.008Z,4.22
2017-12-26T23:50:40.994Z,3.25
2017-12-26T23:53:14.915Z,10.63
2017-12-26T23:55:48.853Z,3.80
2017-12-26T23:58:22.634Z,8.00
